sensor_id;sensor_type;location;lat;lon;timestamp;P1;durP1;ratioP1;P2;durP2;ratioP2
35488;SDS011;21602;55.670;37.578;2023-02-26T00:00:29;19.40;;;11.43;;
35488;SDS011;21602;55.670;37.578;2023-02-26T00:02:55;24.60;;;12.60;;
35488;SDS011;21602;55.670;37.578;2023-02-26T00:05:21;21.67;;;13.10;;
35488;SDS011;21602;55.670;37.578;2023-02-26T00:07:47;20.92;;;12.40;;
35488;SDS011;21602;55.670;37.578;2023-02-26T00:10:14;19.13;;;12.23;;
35488;SDS011;21602;55.670;37.578;2023-02-26T00:12:41;21.08;;;14.13;;
35488;SDS011;21602;55.670;37.578;2023-02-26T00:15:09;26.58;;;13.88;;
35488;SDS011;21602;55.670;37.578;2023-02-26T00:20:24;25.85;;;16.00;;
35488;SDS011;21602;55.670;37.578;2023-02-26T00:22:50;24.95;;;14.45;;
35488;SDS011;21602;55.670;37.578;2023-02-26T00:25:17;27.70;;;16.88;;
35488;SDS011;21602;55.670;37.578;2023-02-26T00:27:42;23.65;;;15.45;;
35488;SDS011;21602;55.670;37.578;2023-02-26T00:30:09;23.60;;;14.50;;
35488;SDS011;21602;55.670;37.578;2023-02-26T00:32:35;23.05;;;13.10;;
35488;SDS011;21602;55.670;37.578;2023-02-26T00:35:04;18.27;;;12.25;;
35488;SDS011;21602;55.670;37.578;2023-02-26T00:42:40;13.93;;;8.55;;
35488;SDS011;21602;55.670;37.578;2023-02-26T00:45:06;14.30;;;8.38;;
35488;SDS011;21602;55.670;37.578;2023-02-26T00:50:19;9.93;;;7.15;;
35488;SDS011;21602;55.670;37.578;2023-02-26T00:53:03;10.18;;;7.00;;
35488;SDS011;21602;55.670;37.578;2023-02-26T00:55:31;10.80;;;7.28;;
35488;SDS011;21602;55.670;37.578;2023-02-26T00:57:56;9.50;;;6.40;;
35488;SDS011;21602;55.670;37.578;2023-02-26T01:00:22;10.65;;;7.15;;
35488;SDS011;21602;55.670;37.578;2023-02-26T01:02:49;11.00;;;6.90;;
35488;SDS011;21602;55.670;37.578;2023-02-26T01:05:16;8.60;;;6.60;;
35488;SDS011;21602;55.670;37.578;2023-02-26T01:10:40;9.98;;;6.15;;
35488;SDS011;21602;55.670;37.578;2023-02-26T01:13:06;9.05;;;5.88;;
35488;SDS011;21602;55.670;37.578;2023-02-26T01:15:33;8.60;;;5.75;;
35488;SDS011;21602;55.670;37.578;2023-02-26T01:21:32;7.68;;;6.22;;
35488;SDS011;21602;55.670;37.578;2023-02-26T01:23:31;10.90;;;7.20;;
35488;SDS011;21602;55.670;37.578;2023-02-26T01:26:04;10.43;;;7.22;;
35488;SDS011;21602;55.670;37.578;2023-02-26T01:28:36;8.63;;;6.10;;
35488;SDS011;21602;55.670;37.578;2023-02-26T01:31:04;8.75;;;6.07;;
35488;SDS011;21602;55.670;37.578;2023-02-26T01:33:40;9.82;;;6.18;;
35488;SDS011;21602;55.670;37.578;2023-02-26T01:36:15;8.10;;;5.75;;
35488;SDS011;21602;55.670;37.578;2023-02-26T01:41:38;6.68;;;5.25;;
35488;SDS011;21602;55.670;37.578;2023-02-26T01:49:16;8.23;;;5.63;;
35488;SDS011;21602;55.670;37.578;2023-02-26T01:51:45;7.47;;;6.05;;
35488;SDS011;21602;55.670;37.578;2023-02-26T01:54:18;8.98;;;6.18;;
35488;SDS011;21602;55.670;37.578;2023-02-26T01:56:49;10.55;;;7.05;;
35488;SDS011;21602;55.670;37.578;2023-02-26T01:59:23;12.77;;;8.30;;
35488;SDS011;21602;55.670;37.578;2023-02-26T02:01:53;11.38;;;7.45;;
35488;SDS011;21602;55.670;37.578;2023-02-26T02:04:21;12.45;;;8.10;;
35488;SDS011;21602;55.670;37.578;2023-02-26T02:06:48;12.57;;;8.52;;
35488;SDS011;21602;55.670;37.578;2023-02-26T02:09:14;13.27;;;8.40;;
35488;SDS011;21602;55.670;37.578;2023-02-26T02:12:06;12.65;;;9.15;;
35488;SDS011;21602;55.670;37.578;2023-02-26T02:15:08;13.68;;;9.10;;
35488;SDS011;21602;55.670;37.578;2023-02-26T02:17:50;14.93;;;8.70;;
35488;SDS011;21602;55.670;37.578;2023-02-26T02:34:44;8.63;;;6.65;;
35488;SDS011;21602;55.670;37.578;2023-02-26T02:37:22;7.43;;;5.47;;
35488;SDS011;21602;55.670;37.578;2023-02-26T02:39:56;6.68;;;4.45;;
35488;SDS011;21602;55.670;37.578;2023-02-26T02:42:31;6.18;;;4.55;;
35488;SDS011;21602;55.670;37.578;2023-02-26T02:45:07;7.10;;;4.30;;
35488;SDS011;21602;55.670;37.578;2023-02-26T02:47:39;6.18;;;4.20;;
35488;SDS011;21602;55.670;37.578;2023-02-26T02:50:10;5.85;;;4.13;;
35488;SDS011;21602;55.670;37.578;2023-02-26T02:55:16;4.38;;;3.28;;
35488;SDS011;21602;55.670;37.578;2023-02-26T02:58:00;4.82;;;3.28;;
35488;SDS011;21602;55.670;37.578;2023-02-26T03:00:31;3.85;;;2.85;;
35488;SDS011;21602;55.670;37.578;2023-02-26T03:03:36;5.00;;;3.08;;
35488;SDS011;21602;55.670;37.578;2023-02-26T03:05:59;6.60;;;3.80;;
35488;SDS011;21602;55.670;37.578;2023-02-26T03:08:27;3.35;;;2.90;;
35488;SDS011;21602;55.670;37.578;2023-02-26T03:10:55;5.03;;;3.70;;
35488;SDS011;21602;55.670;37.578;2023-02-26T03:13:23;4.50;;;3.50;;
35488;SDS011;21602;55.670;37.578;2023-02-26T03:18:59;5.53;;;3.80;;
35488;SDS011;21602;55.670;37.578;2023-02-26T03:27:45;6.07;;;4.75;;
35488;SDS011;21602;55.670;37.578;2023-02-26T03:39:00;6.55;;;4.57;;
35488;SDS011;21602;55.670;37.578;2023-02-26T03:41:33;5.68;;;4.22;;
35488;SDS011;21602;55.670;37.578;2023-02-26T03:47:11;6.03;;;4.40;;
35488;SDS011;21602;55.670;37.578;2023-02-26T03:49:41;6.38;;;4.90;;
35488;SDS011;21602;55.670;37.578;2023-02-26T03:52:15;7.85;;;4.80;;
35488;SDS011;21602;55.670;37.578;2023-02-26T03:55:12;6.32;;;4.63;;
35488;SDS011;21602;55.670;37.578;2023-02-26T03:57:52;5.32;;;3.90;;
35488;SDS011;21602;55.670;37.578;2023-02-26T04:00:32;5.55;;;4.35;;
35488;SDS011;21602;55.670;37.578;2023-02-26T04:03:03;5.57;;;3.92;;
35488;SDS011;21602;55.670;37.578;2023-02-26T04:05:37;6.10;;;4.10;;
35488;SDS011;21602;55.670;37.578;2023-02-26T04:08:08;5.22;;;4.05;;
35488;SDS011;21602;55.670;37.578;2023-02-26T04:13:23;5.57;;;4.07;;
35488;SDS011;21602;55.670;37.578;2023-02-26T04:15:49;5.40;;;4.22;;
35488;SDS011;21602;55.670;37.578;2023-02-26T04:18:16;5.97;;;4.30;;
35488;SDS011;21602;55.670;37.578;2023-02-26T04:20:43;5.65;;;4.38;;
35488;SDS011;21602;55.670;37.578;2023-02-26T04:23:09;4.65;;;3.85;;
35488;SDS011;21602;55.670;37.578;2023-02-26T04:25:35;5.78;;;3.92;;
35488;SDS011;21602;55.670;37.578;2023-02-26T04:28:01;5.05;;;4.28;;
35488;SDS011;21602;55.670;37.578;2023-02-26T04:30:28;4.85;;;3.65;;
35488;SDS011;21602;55.670;37.578;2023-02-26T04:32:55;4.63;;;3.65;;
35488;SDS011;21602;55.670;37.578;2023-02-26T04:35:21;5.20;;;4.13;;
35488;SDS011;21602;55.670;37.578;2023-02-26T04:37:47;4.57;;;3.97;;
35488;SDS011;21602;55.670;37.578;2023-02-26T04:40:13;4.43;;;2.80;;
35488;SDS011;21602;55.670;37.578;2023-02-26T04:42:40;3.70;;;3.05;;
35488;SDS011;21602;55.670;37.578;2023-02-26T04:45:06;3.10;;;2.75;;
35488;SDS011;21602;55.670;37.578;2023-02-26T04:47:35;7.28;;;2.88;;
35488;SDS011;21602;55.670;37.578;2023-02-26T04:50:01;3.60;;;2.97;;
35488;SDS011;21602;55.670;37.578;2023-02-26T04:52:29;3.45;;;3.13;;
35488;SDS011;21602;55.670;37.578;2023-02-26T04:54:56;2.80;;;2.05;;
35488;SDS011;21602;55.670;37.578;2023-02-26T04:57:22;2.55;;;1.92;;
35488;SDS011;21602;55.670;37.578;2023-02-26T04:59:49;2.30;;;2.00;;
35488;SDS011;21602;55.670;37.578;2023-02-26T05:02:15;2.13;;;1.80;;
35488;SDS011;21602;55.670;37.578;2023-02-26T05:04:46;2.50;;;1.95;;
35488;SDS011;21602;55.670;37.578;2023-02-26T05:07:12;4.35;;;1.98;;
35488;SDS011;21602;55.670;37.578;2023-02-26T05:09:41;2.80;;;2.10;;
35488;SDS011;21602;55.670;37.578;2023-02-26T05:12:07;2.63;;;1.80;;
35488;SDS011;21602;55.670;37.578;2023-02-26T05:14:32;1.88;;;1.48;;
35488;SDS011;21602;55.670;37.578;2023-02-26T05:16:58;1.58;;;1.40;;
35488;SDS011;21602;55.670;37.578;2023-02-26T05:19:24;2.60;;;1.40;;
35488;SDS011;21602;55.670;37.578;2023-02-26T05:21:50;1.58;;;1.30;;
35488;SDS011;21602;55.670;37.578;2023-02-26T05:24:16;2.13;;;1.17;;
35488;SDS011;21602;55.670;37.578;2023-02-26T05:26:42;1.40;;;1.00;;
35488;SDS011;21602;55.670;37.578;2023-02-26T05:29:08;1.40;;;1.10;;
35488;SDS011;21602;55.670;37.578;2023-02-26T05:31:34;1.83;;;1.10;;
35488;SDS011;21602;55.670;37.578;2023-02-26T05:34:00;2.45;;;1.13;;
35488;SDS011;21602;55.670;37.578;2023-02-26T05:36:29;1.45;;;1.10;;
35488;SDS011;21602;55.670;37.578;2023-02-26T05:38:55;1.77;;;1.48;;
35488;SDS011;21602;55.670;37.578;2023-02-26T05:41:20;1.60;;;1.23;;
35488;SDS011;21602;55.670;37.578;2023-02-26T05:43:46;1.60;;;0.90;;
35488;SDS011;21602;55.670;37.578;2023-02-26T05:46:15;1.92;;;1.05;;
35488;SDS011;21602;55.670;37.578;2023-02-26T05:48:41;2.75;;;1.60;;
35488;SDS011;21602;55.670;37.578;2023-02-26T05:51:06;1.02;;;0.90;;
35488;SDS011;21602;55.670;37.578;2023-02-26T05:53:32;1.42;;;0.90;;
35488;SDS011;21602;55.670;37.578;2023-02-26T05:56:01;1.02;;;0.90;;
35488;SDS011;21602;55.670;37.578;2023-02-26T05:58:27;1.95;;;1.02;;
35488;SDS011;21602;55.670;37.578;2023-02-26T06:00:53;1.02;;;0.80;;
35488;SDS011;21602;55.670;37.578;2023-02-26T06:03:19;1.00;;;0.50;;
35488;SDS011;21602;55.670;37.578;2023-02-26T06:05:45;2.42;;;1.27;;
35488;SDS011;21602;55.670;37.578;2023-02-26T06:08:14;1.55;;;0.73;;
35488;SDS011;21602;55.670;37.578;2023-02-26T06:10:42;1.17;;;0.88;;
35488;SDS011;21602;55.670;37.578;2023-02-26T06:13:10;1.00;;;0.80;;
35488;SDS011;21602;55.670;37.578;2023-02-26T06:15:36;1.10;;;0.80;;
35488;SDS011;21602;55.670;37.578;2023-02-26T06:18:03;2.35;;;1.02;;
35488;SDS011;21602;55.670;37.578;2023-02-26T06:20:29;0.85;;;0.80;;
35488;SDS011;21602;55.670;37.578;2023-02-26T06:22:55;3.47;;;2.08;;
35488;SDS011;21602;55.670;37.578;2023-02-26T06:25:21;2.65;;;1.33;;
35488;SDS011;21602;55.670;37.578;2023-02-26T06:27:47;1.00;;;0.90;;
35488;SDS011;21602;55.670;37.578;2023-02-26T06:30:12;1.00;;;0.90;;
35488;SDS011;21602;55.670;37.578;2023-02-26T06:32:38;0.98;;;0.77;;
35488;SDS011;21602;55.670;37.578;2023-02-26T06:35:04;1.45;;;1.27;;
35488;SDS011;21602;55.670;37.578;2023-02-26T06:37:31;1.60;;;1.00;;
35488;SDS011;21602;55.670;37.578;2023-02-26T06:39:57;2.67;;;1.02;;
35488;SDS011;21602;55.670;37.578;2023-02-26T06:42:23;1.05;;;0.80;;
35488;SDS011;21602;55.670;37.578;2023-02-26T06:44:48;1.45;;;1.10;;
35488;SDS011;21602;55.670;37.578;2023-02-26T06:47:15;1.17;;;1.08;;
35488;SDS011;21602;55.670;37.578;2023-02-26T06:49:41;1.58;;;1.33;;
35488;SDS011;21602;55.670;37.578;2023-02-26T06:52:07;1.30;;;1.20;;
35488;SDS011;21602;55.670;37.578;2023-02-26T06:54:33;1.92;;;1.48;;
35488;SDS011;21602;55.670;37.578;2023-02-26T06:56:59;3.65;;;1.35;;
35488;SDS011;21602;55.670;37.578;2023-02-26T06:59:26;1.90;;;1.33;;
35488;SDS011;21602;55.670;37.578;2023-02-26T07:01:53;4.10;;;1.40;;
35488;SDS011;21602;55.670;37.578;2023-02-26T07:04:19;3.47;;;1.40;;
35488;SDS011;21602;55.670;37.578;2023-02-26T07:06:45;1.75;;;1.17;;
35488;SDS011;21602;55.670;37.578;2023-02-26T07:09:14;2.08;;;1.58;;
35488;SDS011;21602;55.670;37.578;2023-02-26T07:11:40;1.38;;;1.15;;
35488;SDS011;21602;55.670;37.578;2023-02-26T07:14:07;3.53;;;1.77;;
35488;SDS011;21602;55.670;37.578;2023-02-26T07:16:36;2.88;;;1.50;;
35488;SDS011;21602;55.670;37.578;2023-02-26T07:19:02;1.65;;;1.30;;
35488;SDS011;21602;55.670;37.578;2023-02-26T07:21:28;2.97;;;1.50;;
35488;SDS011;21602;55.670;37.578;2023-02-26T07:23:54;5.03;;;1.55;;
35488;SDS011;21602;55.670;37.578;2023-02-26T07:26:20;1.45;;;1.13;;
35488;SDS011;21602;55.670;37.578;2023-02-26T07:28:46;4.00;;;1.38;;
35488;SDS011;21602;55.670;37.578;2023-02-26T07:31:15;2.75;;;1.30;;
35488;SDS011;21602;55.670;37.578;2023-02-26T07:33:41;6.32;;;1.02;;
35488;SDS011;21602;55.670;37.578;2023-02-26T07:36:07;2.80;;;1.30;;
35488;SDS011;21602;55.670;37.578;2023-02-26T07:38:36;1.25;;;1.15;;
35488;SDS011;21602;55.670;37.578;2023-02-26T07:43:30;3.92;;;1.77;;
35488;SDS011;21602;55.670;37.578;2023-02-26T07:45:56;1.42;;;1.10;;
35488;SDS011;21602;55.670;37.578;2023-02-26T07:48:21;2.85;;;1.50;;
35488;SDS011;21602;55.670;37.578;2023-02-26T07:50:50;4.78;;;1.58;;
35488;SDS011;21602;55.670;37.578;2023-02-26T07:53:18;1.77;;;1.48;;
35488;SDS011;21602;55.670;37.578;2023-02-26T07:55:44;5.00;;;1.38;;
35488;SDS011;21602;55.670;37.578;2023-02-26T07:58:10;4.07;;;1.20;;
35488;SDS011;21602;55.670;37.578;2023-02-26T08:00:36;2.40;;;1.50;;
35488;SDS011;21602;55.670;37.578;2023-02-26T08:03:02;4.57;;;1.77;;
35488;SDS011;21602;55.670;37.578;2023-02-26T08:07:56;2.55;;;1.10;;
35488;SDS011;21602;55.670;37.578;2023-02-26T08:10:22;2.00;;;1.30;;
35488;SDS011;21602;55.670;37.578;2023-02-26T08:12:48;3.30;;;1.08;;
35488;SDS011;21602;55.670;37.578;2023-02-26T08:15:14;1.60;;;1.13;;
35488;SDS011;21602;55.670;37.578;2023-02-26T08:17:40;4.22;;;2.20;;
35488;SDS011;21602;55.670;37.578;2023-02-26T08:20:06;1.23;;;1.13;;
35488;SDS011;21602;55.670;37.578;2023-02-26T08:22:33;1.95;;;1.40;;
35488;SDS011;21602;55.670;37.578;2023-02-26T08:24:59;2.13;;;0.85;;
35488;SDS011;21602;55.670;37.578;2023-02-26T08:27:25;1.88;;;1.10;;
35488;SDS011;21602;55.670;37.578;2023-02-26T08:29:51;2.92;;;0.88;;
35488;SDS011;21602;55.670;37.578;2023-02-26T08:32:18;1.60;;;1.00;;
35488;SDS011;21602;55.670;37.578;2023-02-26T08:34:44;1.40;;;1.08;;
35488;SDS011;21602;55.670;37.578;2023-02-26T08:37:11;2.28;;;1.13;;
35488;SDS011;21602;55.670;37.578;2023-02-26T08:39:37;2.70;;;0.90;;
35488;SDS011;21602;55.670;37.578;2023-02-26T08:42:07;1.63;;;0.60;;
35488;SDS011;21602;55.670;37.578;2023-02-26T08:44:34;2.08;;;0.85;;
35488;SDS011;21602;55.670;37.578;2023-02-26T08:47:00;1.42;;;1.23;;
35488;SDS011;21602;55.670;37.578;2023-02-26T08:49:27;1.20;;;0.70;;
35488;SDS011;21602;55.670;37.578;2023-02-26T08:51:54;0.63;;;0.63;;
35488;SDS011;21602;55.670;37.578;2023-02-26T08:54:22;1.38;;;0.60;;
35488;SDS011;21602;55.670;37.578;2023-02-26T08:56:48;1.17;;;0.82;;
35488;SDS011;21602;55.670;37.578;2023-02-26T08:59:14;1.25;;;0.82;;
35488;SDS011;21602;55.670;37.578;2023-02-26T09:01:40;1.20;;;0.75;;
35488;SDS011;21602;55.670;37.578;2023-02-26T09:04:06;2.28;;;0.60;;
35488;SDS011;21602;55.670;37.578;2023-02-26T09:06:32;1.10;;;0.75;;
35488;SDS011;21602;55.670;37.578;2023-02-26T09:08:59;1.15;;;0.50;;
35488;SDS011;21602;55.670;37.578;2023-02-26T09:11:27;2.28;;;1.00;;
35488;SDS011;21602;55.670;37.578;2023-02-26T09:13:55;0.70;;;0.50;;
35488;SDS011;21602;55.670;37.578;2023-02-26T09:16:23;12.10;;;1.63;;
35488;SDS011;21602;55.670;37.578;2023-02-26T09:18:50;0.90;;;0.80;;
35488;SDS011;21602;55.670;37.578;2023-02-26T09:21:16;0.90;;;0.70;;
35488;SDS011;21602;55.670;37.578;2023-02-26T09:23:42;1.10;;;0.50;;
35488;SDS011;21602;55.670;37.578;2023-02-26T09:26:09;0.77;;;0.60;;
35488;SDS011;21602;55.670;37.578;2023-02-26T09:28:35;0.93;;;0.70;;
35488;SDS011;21602;55.670;37.578;2023-02-26T09:31:01;1.08;;;0.80;;
35488;SDS011;21602;55.670;37.578;2023-02-26T09:33:27;2.55;;;0.60;;
35488;SDS011;21602;55.670;37.578;2023-02-26T09:35:56;0.60;;;0.60;;
35488;SDS011;21602;55.670;37.578;2023-02-26T09:38:22;0.90;;;0.60;;
35488;SDS011;21602;55.670;37.578;2023-02-26T09:45:55;1.92;;;0.68;;
35488;SDS011;21602;55.670;37.578;2023-02-26T09:48:24;1.25;;;0.80;;
35488;SDS011;21602;55.670;37.578;2023-02-26T09:50:54;1.00;;;0.80;;
35488;SDS011;21602;55.670;37.578;2023-02-26T09:56:02;2.17;;;1.05;;
35488;SDS011;21602;55.670;37.578;2023-02-26T09:58:33;1.60;;;0.98;;
35488;SDS011;21602;55.670;37.578;2023-02-26T10:12:06;1.83;;;0.90;;
35488;SDS011;21602;55.670;37.578;2023-02-26T10:14:38;2.03;;;1.10;;
35488;SDS011;21602;55.670;37.578;2023-02-26T10:25:39;1.80;;;1.20;;
35488;SDS011;21602;55.670;37.578;2023-02-26T10:30:54;3.42;;;0.95;;
35488;SDS011;21602;55.670;37.578;2023-02-26T10:39:54;3.33;;;1.10;;
35488;SDS011;21602;55.670;37.578;2023-02-26T10:42:11;1.52;;;0.90;;
35488;SDS011;21602;55.670;37.578;2023-02-26T10:44:55;1.27;;;1.08;;
35488;SDS011;21602;55.670;37.578;2023-02-26T10:47:48;1.52;;;0.80;;
35488;SDS011;21602;55.670;37.578;2023-02-26T10:50:48;2.28;;;1.13;;
35488;SDS011;21602;55.670;37.578;2023-02-26T10:53:17;2.45;;;1.30;;
35488;SDS011;21602;55.670;37.578;2023-02-26T10:56:26;3.55;;;1.20;;
35488;SDS011;21602;55.670;37.578;2023-02-26T10:58:41;2.50;;;1.00;;
35488;SDS011;21602;55.670;37.578;2023-02-26T11:01:15;2.00;;;1.00;;
35488;SDS011;21602;55.670;37.578;2023-02-26T11:03:45;1.42;;;1.20;;
35488;SDS011;21602;55.670;37.578;2023-02-26T11:06:56;1.75;;;0.93;;
35488;SDS011;21602;55.670;37.578;2023-02-26T11:09:26;1.33;;;1.10;;
35488;SDS011;21602;55.670;37.578;2023-02-26T11:14:44;2.17;;;0.95;;
35488;SDS011;21602;55.670;37.578;2023-02-26T11:17:22;0.93;;;0.85;;
35488;SDS011;21602;55.670;37.578;2023-02-26T11:20:04;1.20;;;1.00;;
35488;SDS011;21602;55.670;37.578;2023-02-26T11:22:42;1.50;;;1.13;;
35488;SDS011;21602;55.670;37.578;2023-02-26T11:25:16;1.35;;;1.23;;
35488;SDS011;21602;55.670;37.578;2023-02-26T11:27:43;2.42;;;0.85;;
35488;SDS011;21602;55.670;37.578;2023-02-26T11:32:43;1.58;;;1.00;;
35488;SDS011;21602;55.670;37.578;2023-02-26T11:35:14;1.08;;;0.90;;
35488;SDS011;21602;55.670;37.578;2023-02-26T11:37:44;3.22;;;1.27;;
35488;SDS011;21602;55.670;37.578;2023-02-26T11:40:18;1.02;;;0.82;;
35488;SDS011;21602;55.670;37.578;2023-02-26T11:42:51;1.30;;;1.00;;
35488;SDS011;21602;55.670;37.578;2023-02-26T11:45:20;3.85;;;1.30;;
35488;SDS011;21602;55.670;37.578;2023-02-26T11:47:47;0.98;;;0.80;;
35488;SDS011;21602;55.670;37.578;2023-02-26T11:50:22;1.70;;;0.98;;
35488;SDS011;21602;55.670;37.578;2023-02-26T11:52:54;2.15;;;1.20;;
35488;SDS011;21602;55.670;37.578;2023-02-26T11:55:31;2.58;;;0.95;;
35488;SDS011;21602;55.670;37.578;2023-02-26T11:58:01;1.55;;;1.35;;
35488;SDS011;21602;55.670;37.578;2023-02-26T12:00:39;3.65;;;1.40;;
35488;SDS011;21602;55.670;37.578;2023-02-26T12:03:07;1.50;;;1.23;;
35488;SDS011;21602;55.670;37.578;2023-02-26T12:05:47;2.42;;;1.00;;
35488;SDS011;21602;55.670;37.578;2023-02-26T12:08:36;1.85;;;1.08;;
35488;SDS011;21602;55.670;37.578;2023-02-26T12:22:49;4.43;;;1.50;;
35488;SDS011;21602;55.670;37.578;2023-02-26T12:28:24;1.00;;;0.77;;
35488;SDS011;21602;55.670;37.578;2023-02-26T12:31:00;1.52;;;1.20;;
35488;SDS011;21602;55.670;37.578;2023-02-26T12:33:35;2.13;;;1.25;;
35488;SDS011;21602;55.670;37.578;2023-02-26T12:36:12;2.70;;;1.60;;
35488;SDS011;21602;55.670;37.578;2023-02-26T12:39:03;1.40;;;1.30;;
35488;SDS011;21602;55.670;37.578;2023-02-26T12:58:53;2.80;;;2.15;;
35488;SDS011;21602;55.670;37.578;2023-02-26T13:15:52;3.53;;;2.10;;
35488;SDS011;21602;55.670;37.578;2023-02-26T13:18:53;3.33;;;2.45;;
35488;SDS011;21602;55.670;37.578;2023-02-26T13:21:32;3.55;;;2.42;;
35488;SDS011;21602;55.670;37.578;2023-02-26T13:24:06;2.60;;;2.20;;
35488;SDS011;21602;55.670;37.578;2023-02-26T13:26:39;3.63;;;2.42;;
35488;SDS011;21602;55.670;37.578;2023-02-26T13:29:22;2.35;;;2.13;;
35488;SDS011;21602;55.670;37.578;2023-02-26T13:31:54;3.05;;;2.40;;
35488;SDS011;21602;55.670;37.578;2023-02-26T13:34:38;2.67;;;2.35;;
35488;SDS011;21602;55.670;37.578;2023-02-26T13:37:20;3.35;;;3.03;;
35488;SDS011;21602;55.670;37.578;2023-02-26T13:51:12;4.15;;;3.00;;
35488;SDS011;21602;55.670;37.578;2023-02-26T13:56:15;4.55;;;3.05;;
35488;SDS011;21602;55.670;37.578;2023-02-26T13:58:50;3.78;;;3.17;;
35488;SDS011;21602;55.670;37.578;2023-02-26T14:01:19;3.78;;;3.20;;
35488;SDS011;21602;55.670;37.578;2023-02-26T14:12:22;5.18;;;4.28;;
35488;SDS011;21602;55.670;37.578;2023-02-26T14:14:41;6.05;;;4.13;;
35488;SDS011;21602;55.670;37.578;2023-02-26T14:22:50;6.22;;;4.22;;
35488;SDS011;21602;55.670;37.578;2023-02-26T14:30:50;4.88;;;4.10;;
35488;SDS011;21602;55.670;37.578;2023-02-26T14:33:36;6.70;;;4.82;;
35488;SDS011;21602;55.670;37.578;2023-02-26T14:36:31;4.65;;;3.63;;
35488;SDS011;21602;55.670;37.578;2023-02-26T14:39:01;8.35;;;4.45;;
35488;SDS011;21602;55.670;37.578;2023-02-26T14:41:35;6.60;;;4.55;;
35488;SDS011;21602;55.670;37.578;2023-02-26T14:44:25;6.55;;;4.97;;
35488;SDS011;21602;55.670;37.578;2023-02-26T14:46:54;5.85;;;4.40;;
35488;SDS011;21602;55.670;37.578;2023-02-26T14:49:27;5.82;;;4.63;;
35488;SDS011;21602;55.670;37.578;2023-02-26T14:57:39;5.38;;;4.13;;
35488;SDS011;21602;55.670;37.578;2023-02-26T15:00:25;6.05;;;4.40;;
35488;SDS011;21602;55.670;37.578;2023-02-26T15:05:39;6.93;;;4.70;;
35488;SDS011;21602;55.670;37.578;2023-02-26T15:08:12;8.80;;;3.90;;
35488;SDS011;21602;55.670;37.578;2023-02-26T15:18:55;7.13;;;4.45;;
35488;SDS011;21602;55.670;37.578;2023-02-26T15:24:32;7.63;;;5.18;;
35488;SDS011;21602;55.670;37.578;2023-02-26T15:27:02;6.43;;;5.05;;
35488;SDS011;21602;55.670;37.578;2023-02-26T15:29:39;6.82;;;5.00;;
35488;SDS011;21602;55.670;37.578;2023-02-26T15:34:44;6.85;;;4.88;;
35488;SDS011;21602;55.670;37.578;2023-02-26T15:37:21;4.53;;;3.70;;
35488;SDS011;21602;55.670;37.578;2023-02-26T15:39:50;6.60;;;4.70;;
35488;SDS011;21602;55.670;37.578;2023-02-26T15:42:18;6.90;;;5.20;;
35488;SDS011;21602;55.670;37.578;2023-02-26T15:44:46;8.85;;;5.82;;
35488;SDS011;21602;55.670;37.578;2023-02-26T15:47:14;8.30;;;5.20;;
35488;SDS011;21602;55.670;37.578;2023-02-26T15:49:43;8.77;;;5.05;;
35488;SDS011;21602;55.670;37.578;2023-02-26T15:52:16;11.50;;;6.32;;
35488;SDS011;21602;55.670;37.578;2023-02-26T15:54:51;6.68;;;4.82;;
35488;SDS011;21602;55.670;37.578;2023-02-26T15:57:20;6.28;;;5.03;;
35488;SDS011;21602;55.670;37.578;2023-02-26T15:59:53;8.70;;;6.10;;
35488;SDS011;21602;55.670;37.578;2023-02-26T16:02:26;9.93;;;5.93;;
35488;SDS011;21602;55.670;37.578;2023-02-26T16:04:55;5.78;;;4.60;;
35488;SDS011;21602;55.670;37.578;2023-02-26T16:07:21;9.05;;;4.85;;
35488;SDS011;21602;55.670;37.578;2023-02-26T16:09:52;7.15;;;4.90;;
35488;SDS011;21602;55.670;37.578;2023-02-26T16:12:30;7.47;;;4.47;;
35488;SDS011;21602;55.670;37.578;2023-02-26T16:15:45;8.23;;;5.65;;
35488;SDS011;21602;55.670;37.578;2023-02-26T16:20:33;9.57;;;4.97;;
35488;SDS011;21602;55.670;37.578;2023-02-26T16:23:11;7.22;;;3.33;;
35488;SDS011;21602;55.670;37.578;2023-02-26T16:25:59;10.25;;;5.60;;
35488;SDS011;21602;55.670;37.578;2023-02-26T16:28:30;8.23;;;5.53;;
35488;SDS011;21602;55.670;37.578;2023-02-26T16:31:05;8.18;;;5.25;;
35488;SDS011;21602;55.670;37.578;2023-02-26T16:33:35;9.40;;;5.90;;
35488;SDS011;21602;55.670;37.578;2023-02-26T16:36:04;8.90;;;4.70;;
35488;SDS011;21602;55.670;37.578;2023-02-26T16:38:43;7.50;;;4.43;;
35488;SDS011;21602;55.670;37.578;2023-02-26T16:41:11;6.05;;;4.10;;
35488;SDS011;21602;55.670;37.578;2023-02-26T16:46:14;7.85;;;5.32;;
35488;SDS011;21602;55.670;37.578;2023-02-26T16:48:47;8.80;;;4.40;;
35488;SDS011;21602;55.670;37.578;2023-02-26T16:51:21;8.15;;;4.47;;
35488;SDS011;21602;55.670;37.578;2023-02-26T16:53:59;7.68;;;5.13;;
35488;SDS011;21602;55.670;37.578;2023-02-26T16:56:33;7.07;;;4.82;;
35488;SDS011;21602;55.670;37.578;2023-02-26T16:59:04;4.45;;;2.60;;
35488;SDS011;21602;55.670;37.578;2023-02-26T17:01:35;7.75;;;4.60;;
35488;SDS011;21602;55.670;37.578;2023-02-26T17:04:04;6.32;;;4.28;;
35488;SDS011;21602;55.670;37.578;2023-02-26T17:06:32;8.10;;;5.45;;
35488;SDS011;21602;55.670;37.578;2023-02-26T17:09:04;6.72;;;4.47;;
35488;SDS011;21602;55.670;37.578;2023-02-26T17:11:37;7.72;;;4.28;;
35488;SDS011;21602;55.670;37.578;2023-02-26T17:16:49;8.18;;;5.05;;
35488;SDS011;21602;55.670;37.578;2023-02-26T17:19:16;9.25;;;3.90;;
35488;SDS011;21602;55.670;37.578;2023-02-26T17:21:44;4.82;;;3.85;;
35488;SDS011;21602;55.670;37.578;2023-02-26T17:24:23;7.22;;;4.53;;
35488;SDS011;21602;55.670;37.578;2023-02-26T17:26:54;5.55;;;3.95;;
35488;SDS011;21602;55.670;37.578;2023-02-26T17:29:24;6.53;;;4.25;;
35488;SDS011;21602;55.670;37.578;2023-02-26T17:31:57;8.05;;;5.70;;
35488;SDS011;21602;55.670;37.578;2023-02-26T17:34:22;6.13;;;4.55;;
35488;SDS011;21602;55.670;37.578;2023-02-26T17:36:48;7.32;;;5.35;;
35488;SDS011;21602;55.670;37.578;2023-02-26T17:39:14;6.18;;;4.30;;
35488;SDS011;21602;55.670;37.578;2023-02-26T17:41:43;7.75;;;4.95;;
35488;SDS011;21602;55.670;37.578;2023-02-26T17:44:10;6.07;;;4.60;;
35488;SDS011;21602;55.670;37.578;2023-02-26T17:46:36;8.60;;;5.53;;
35488;SDS011;21602;55.670;37.578;2023-02-26T17:49:02;6.57;;;3.42;;
35488;SDS011;21602;55.670;37.578;2023-02-26T17:51:29;7.05;;;4.35;;
35488;SDS011;21602;55.670;37.578;2023-02-26T17:53:55;7.47;;;3.13;;
35488;SDS011;21602;55.670;37.578;2023-02-26T17:56:28;7.20;;;4.75;;
35488;SDS011;21602;55.670;37.578;2023-02-26T17:58:56;7.18;;;4.03;;
35488;SDS011;21602;55.670;37.578;2023-02-26T18:01:23;6.43;;;4.07;;
35488;SDS011;21602;55.670;37.578;2023-02-26T18:03:53;7.40;;;4.10;;
35488;SDS011;21602;55.670;37.578;2023-02-26T18:06:20;6.57;;;5.07;;
35488;SDS011;21602;55.670;37.578;2023-02-26T18:08:47;4.90;;;2.77;;
35488;SDS011;21602;55.670;37.578;2023-02-26T18:11:14;6.18;;;4.30;;
35488;SDS011;21602;55.670;37.578;2023-02-26T18:13:41;4.82;;;3.50;;
35488;SDS011;21602;55.670;37.578;2023-02-26T18:16:13;7.00;;;4.60;;
35488;SDS011;21602;55.670;37.578;2023-02-26T18:18:44;4.93;;;3.45;;
35488;SDS011;21602;55.670;37.578;2023-02-26T18:21:11;7.03;;;4.22;;
35488;SDS011;21602;55.670;37.578;2023-02-26T18:23:39;6.43;;;4.20;;
35488;SDS011;21602;55.670;37.578;2023-02-26T18:26:05;6.18;;;3.70;;
35488;SDS011;21602;55.670;37.578;2023-02-26T18:28:31;6.05;;;4.00;;
35488;SDS011;21602;55.670;37.578;2023-02-26T18:30:57;4.57;;;3.42;;
35488;SDS011;21602;55.670;37.578;2023-02-26T18:33:24;6.38;;;3.88;;